sensor_id;sensor_type;location;lat;lon;timestamp;temperature;humidity
75799;DHT22;70933;44.692;37.776;2023-12-20T00:00:15;22.42;39.47
75799;DHT22;70933;44.692;37.776;2023-12-20T00:01:17;22.41;39.50
75799;DHT22;70933;44.692;37.776;2023-12-20T00:02:19;22.41;39.51
75799;DHT22;70933;44.692;37.776;2023-12-20T00:03:21;22.41;39.45
75799;DHT22;70933;44.692;37.776;2023-12-20T00:04:23;22.40;39.49
75799;DHT22;70933;44.692;37.776;2023-12-20T00:05:25;22.40;39.51
75799;DHT22;70933;44.692;37.776;2023-12-20T00:06:26;22.42;39.49
75799;DHT22;70933;44.692;37.776;2023-12-20T00:07:28;22.43;39.51
75799;DHT22;70933;44.692;37.776;2023-12-20T00:08:30;22.40;39.49
75799;DHT22;70933;44.692;37.776;2023-12-20T00:09:32;22.41;39.48
75799;DHT22;70933;44.692;37.776;2023-12-20T00:10:34;22.41;39.48
75799;DHT22;70933;44.692;37.776;2023-12-20T00:11:35;22.41;39.50
75799;DHT22;70933;44.692;37.776;2023-12-20T00:12:37;22.41;39.49
75799;DHT22;70933;44.692;37.776;2023-12-20T00:13:39;22.42;39.52
75799;DHT22;70933;44.692;37.776;2023-12-20T00:14:41;22.41;39.49
75799;DHT22;70933;44.692;37.776;2023-12-20T00:15:43;22.40;39.49
75799;DHT22;70933;44.692;37.776;2023-12-20T00:16:45;22.41;39.52
75799;DHT22;70933;44.692;37.776;2023-12-20T00:17:46;22.40;39.49
75799;DHT22;70933;44.692;37.776;2023-12-20T00:18:48;22.42;39.49
75799;DHT22;70933;44.692;37.776;2023-12-20T00:19:50;22.42;39.49
75799;DHT22;70933;44.692;37.776;2023-12-20T00:20:52;22.42;39.52
75799;DHT22;70933;44.692;37.776;2023-12-20T00:21:54;22.43;39.51
75799;DHT22;70933;44.692;37.776;2023-12-20T00:22:57;22.43;39.48
75799;DHT22;70933;44.692;37.776;2023-12-20T00:24:02;22.42;39.49
75799;DHT22;70933;44.692;37.776;2023-12-20T00:25:04;22.43;39.47
75799;DHT22;70933;44.692;37.776;2023-12-20T00:26:06;22.43;39.49
75799;DHT22;70933;44.692;37.776;2023-12-20T00:27:08;22.42;39.49
75799;DHT22;70933;44.692;37.776;2023-12-20T00:28:10;22.43;39.50
75799;DHT22;70933;44.692;37.776;2023-12-20T00:29:11;22.42;39.50
75799;DHT22;70933;44.692;37.776;2023-12-20T00:30:13;22.44;39.49
75799;DHT22;70933;44.692;37.776;2023-12-20T00:31:15;22.43;39.51
75799;DHT22;70933;44.692;37.776;2023-12-20T00:32:17;22.43;39.49
75799;DHT22;70933;44.692;37.776;2023-12-20T00:33:19;22.42;39.49
75799;DHT22;70933;44.692;37.776;2023-12-20T00:34:21;22.42;39.50
75799;DHT22;70933;44.692;37.776;2023-12-20T00:35:23;22.43;39.50
75799;DHT22;70933;44.692;37.776;2023-12-20T00:36:25;22.42;39.49
75799;DHT22;70933;44.692;37.776;2023-12-20T00:37:27;22.44;39.50
75799;DHT22;70933;44.692;37.776;2023-12-20T00:38:29;22.43;39.49
75799;DHT22;70933;44.692;37.776;2023-12-20T00:39:31;22.43;39.50
75799;DHT22;70933;44.692;37.776;2023-12-20T00:40:34;22.43;39.48
75799;DHT22;70933;44.692;37.776;2023-12-20T00:41:36;22.44;39.49
75799;DHT22;70933;44.692;37.776;2023-12-20T00:42:38;22.43;39.47
75799;DHT22;70933;44.692;37.776;2023-12-20T00:43:40;22.44;39.47
75799;DHT22;70933;44.692;37.776;2023-12-20T00:44:42;22.44;39.48
75799;DHT22;70933;44.692;37.776;2023-12-20T00:45:45;22.44;39.49
75799;DHT22;70933;44.692;37.776;2023-12-20T00:46:46;22.43;39.49
75799;DHT22;70933;44.692;37.776;2023-12-20T00:47:48;22.43;39.49
75799;DHT22;70933;44.692;37.776;2023-12-20T00:48:50;22.43;39.48
75799;DHT22;70933;44.692;37.776;2023-12-20T00:49:52;22.43;39.50
75799;DHT22;70933;44.692;37.776;2023-12-20T00:50:54;22.44;39.47
75799;DHT22;70933;44.692;37.776;2023-12-20T00:51:56;22.44;39.49
75799;DHT22;70933;44.692;37.776;2023-12-20T00:52:57;22.44;39.49
75799;DHT22;70933;44.692;37.776;2023-12-20T00:53:59;22.46;39.49
75799;DHT22;70933;44.692;37.776;2023-12-20T00:55:01;22.46;39.48
75799;DHT22;70933;44.692;37.776;2023-12-20T00:56:04;22.44;39.48
75799;DHT22;70933;44.692;37.776;2023-12-20T00:57:06;22.44;39.49
75799;DHT22;70933;44.692;37.776;2023-12-20T00:58:08;22.46;39.47
75799;DHT22;70933;44.692;37.776;2023-12-20T00:59:09;22.46;39.47
75799;DHT22;70933;44.692;37.776;2023-12-20T01:00:12;22.44;39.47
75799;DHT22;70933;44.692;37.776;2023-12-20T01:01:15;22.43;39.49
75799;DHT22;70933;44.692;37.776;2023-12-20T01:02:17;22.46;39.48
75799;DHT22;70933;44.692;37.776;2023-12-20T01:03:19;22.46;39.48
75799;DHT22;70933;44.692;37.776;2023-12-20T01:04:21;22.44;39.48
75799;DHT22;70933;44.692;37.776;2023-12-20T01:05:22;22.47;39.50
75799;DHT22;70933;44.692;37.776;2023-12-20T01:06:24;22.44;39.49
75799;DHT22;70933;44.692;37.776;2023-12-20T01:07:26;22.44;39.49
75799;DHT22;70933;44.692;37.776;2023-12-20T01:08:28;22.44;39.46
75799;DHT22;70933;44.692;37.776;2023-12-20T01:09:30;22.47;39.48
75799;DHT22;70933;44.692;37.776;2023-12-20T01:10:32;22.47;39.48
75799;DHT22;70933;44.692;37.776;2023-12-20T01:11:33;22.46;39.46
75799;DHT22;70933;44.692;37.776;2023-12-20T01:12:36;22.47;39.48
75799;DHT22;70933;44.692;37.776;2023-12-20T01:13:38;22.46;39.47
75799;DHT22;70933;44.692;37.776;2023-12-20T01:14:40;22.44;39.50
75799;DHT22;70933;44.692;37.776;2023-12-20T01:15:41;22.44;39.51
75799;DHT22;70933;44.692;37.776;2023-12-20T01:16:44;22.44;39.50
75799;DHT22;70933;44.692;37.776;2023-12-20T01:17:45;22.46;39.51
75799;DHT22;70933;44.692;37.776;2023-12-20T01:18:47;22.46;39.49
75799;DHT22;70933;44.692;37.776;2023-12-20T01:19:49;22.46;39.49
75799;DHT22;70933;44.692;37.776;2023-12-20T01:20:51;22.46;39.49
75799;DHT22;70933;44.692;37.776;2023-12-20T01:21:52;22.47;39.49
75799;DHT22;70933;44.692;37.776;2023-12-20T01:22:54;22.48;39.49
75799;DHT22;70933;44.692;37.776;2023-12-20T01:23:56;22.47;39.47
75799;DHT22;70933;44.692;37.776;2023-12-20T01:24:58;22.47;39.48
75799;DHT22;70933;44.692;37.776;2023-12-20T01:26:00;22.48;39.48
75799;DHT22;70933;44.692;37.776;2023-12-20T01:27:02;22.48;39.47
75799;DHT22;70933;44.692;37.776;2023-12-20T01:28:04;22.48;39.46
75799;DHT22;70933;44.692;37.776;2023-12-20T01:29:06;22.48;39.47
75799;DHT22;70933;44.692;37.776;2023-12-20T01:30:08;22.48;39.48
75799;DHT22;70933;44.692;37.776;2023-12-20T01:31:10;22.48;39.47
75799;DHT22;70933;44.692;37.776;2023-12-20T01:32:11;22.47;39.48
75799;DHT22;70933;44.692;37.776;2023-12-20T01:33:13;22.48;39.46
75799;DHT22;70933;44.692;37.776;2023-12-20T01:34:15;22.48;39.49
75799;DHT22;70933;44.692;37.776;2023-12-20T01:35:17;22.47;39.51
75799;DHT22;70933;44.692;37.776;2023-12-20T01:36:19;22.47;39.50
75799;DHT22;70933;44.692;37.776;2023-12-20T01:37:21;22.48;39.49
75799;DHT22;70933;44.692;37.776;2023-12-20T01:38:25;22.48;39.49
75799;DHT22;70933;44.692;37.776;2023-12-20T01:39:27;22.49;39.52
75799;DHT22;70933;44.692;37.776;2023-12-20T01:40:28;22.48;39.50
75799;DHT22;70933;44.692;37.776;2023-12-20T01:41:30;22.47;39.50
75799;DHT22;70933;44.692;37.776;2023-12-20T01:42:32;22.47;39.49
75799;DHT22;70933;44.692;37.776;2023-12-20T01:43:34;22.48;39.50
75799;DHT22;70933;44.692;37.776;2023-12-20T01:44:36;22.48;39.51
75799;DHT22;70933;44.692;37.776;2023-12-20T01:45:38;22.48;39.49
75799;DHT22;70933;44.692;37.776;2023-12-20T01:46:40;22.48;39.50
75799;DHT22;70933;44.692;37.776;2023-12-20T01:47:42;22.48;39.51
75799;DHT22;70933;44.692;37.776;2023-12-20T01:48:44;22.48;39.52
75799;DHT22;70933;44.692;37.776;2023-12-20T01:49:46;22.50;39.50
75799;DHT22;70933;44.692;37.776;2023-12-20T01:50:48;22.48;39.50
75799;DHT22;70933;44.692;37.776;2023-12-20T01:51:50;22.49;39.52
75799;DHT22;70933;44.692;37.776;2023-12-20T01:52:52;22.47;39.51
75799;DHT22;70933;44.692;37.776;2023-12-20T01:53:57;22.48;39.53
75799;DHT22;70933;44.692;37.776;2023-12-20T01:55:00;22.49;39.54
75799;DHT22;70933;44.692;37.776;2023-12-20T01:56:05;22.48;39.54
75799;DHT22;70933;44.692;37.776;2023-12-20T01:57:07;22.50;39.56
75799;DHT22;70933;44.692;37.776;2023-12-20T01:58:11;22.50;39.54
75799;DHT22;70933;44.692;37.776;2023-12-20T01:59:13;22.50;39.52
75799;DHT22;70933;44.692;37.776;2023-12-20T02:00:16;22.49;39.55
75799;DHT22;70933;44.692;37.776;2023-12-20T02:01:18;22.49;39.53
75799;DHT22;70933;44.692;37.776;2023-12-20T02:02:20;22.48;39.56
75799;DHT22;70933;44.692;37.776;2023-12-20T02:03:22;22.50;39.56
75799;DHT22;70933;44.692;37.776;2023-12-20T02:04:24;22.50;39.53
75799;DHT22;70933;44.692;37.776;2023-12-20T02:05:27;22.49;39.55
75799;DHT22;70933;44.692;37.776;2023-12-20T02:06:30;22.50;39.57
75799;DHT22;70933;44.692;37.776;2023-12-20T02:07:34;22.49;39.54
75799;DHT22;70933;44.692;37.776;2023-12-20T02:08:36;22.49;39.56
75799;DHT22;70933;44.692;37.776;2023-12-20T02:09:38;22.48;39.58
75799;DHT22;70933;44.692;37.776;2023-12-20T02:10:41;22.48;39.57
75799;DHT22;70933;44.692;37.776;2023-12-20T02:11:43;22.49;39.57
75799;DHT22;70933;44.692;37.776;2023-12-20T02:12:45;22.49;39.57
75799;DHT22;70933;44.692;37.776;2023-12-20T02:13:47;22.50;39.56
75799;DHT22;70933;44.692;37.776;2023-12-20T02:14:49;22.49;39.56
75799;DHT22;70933;44.692;37.776;2023-12-20T02:15:51;22.51;39.56
75799;DHT22;70933;44.692;37.776;2023-12-20T02:16:53;22.49;39.56
75799;DHT22;70933;44.692;37.776;2023-12-20T02:17:55;22.51;39.56
75799;DHT22;70933;44.692;37.776;2023-12-20T02:19:17;22.50;39.57
75799;DHT22;70933;44.692;37.776;2023-12-20T02:20:19;22.50;39.57
75799;DHT22;70933;44.692;37.776;2023-12-20T02:21:33;22.50;39.58
75799;DHT22;70933;44.692;37.776;2023-12-20T02:22:38;22.50;39.61
75799;DHT22;70933;44.692;37.776;2023-12-20T02:23:39;22.49;39.59
75799;DHT22;70933;44.692;37.776;2023-12-20T02:24:42;22.49;39.59
75799;DHT22;70933;44.692;37.776;2023-12-20T02:25:43;22.50;39.60
75799;DHT22;70933;44.692;37.776;2023-12-20T02:26:46;22.48;39.59
75799;DHT22;70933;44.692;37.776;2023-12-20T02:27:48;22.49;39.62
75799;DHT22;70933;44.692;37.776;2023-12-20T02:28:50;22.48;39.60
75799;DHT22;70933;44.692;37.776;2023-12-20T02:29:52;22.49;39.63
75799;DHT22;70933;44.692;37.776;2023-12-20T02:30:54;22.49;39.61
75799;DHT22;70933;44.692;37.776;2023-12-20T02:31:55;22.49;39.62
75799;DHT22;70933;44.692;37.776;2023-12-20T02:32:59;22.48;39.60
75799;DHT22;70933;44.692;37.776;2023-12-20T02:34:01;22.49;39.65
75799;DHT22;70933;44.692;37.776;2023-12-20T02:35:03;22.48;39.64
75799;DHT22;70933;44.692;37.776;2023-12-20T02:36:06;22.47;39.64
75799;DHT22;70933;44.692;37.776;2023-12-20T02:37:08;22.49;39.65
75799;DHT22;70933;44.692;37.776;2023-12-20T02:38:10;22.49;39.64
75799;DHT22;70933;44.692;37.776;2023-12-20T02:39:12;22.49;39.64
75799;DHT22;70933;44.692;37.776;2023-12-20T02:40:14;22.48;39.65
75799;DHT22;70933;44.692;37.776;2023-12-20T02:41:16;22.49;39.65
75799;DHT22;70933;44.692;37.776;2023-12-20T02:42:19;22.50;39.66
75799;DHT22;70933;44.692;37.776;2023-12-20T02:43:21;22.50;39.65
75799;DHT22;70933;44.692;37.776;2023-12-20T02:44:23;22.48;39.62
75799;DHT22;70933;44.692;37.776;2023-12-20T02:45:26;22.49;39.66
75799;DHT22;70933;44.692;37.776;2023-12-20T02:46:28;22.49;39.68
75799;DHT22;70933;44.692;37.776;2023-12-20T02:47:30;22.49;39.65
75799;DHT22;70933;44.692;37.776;2023-12-20T02:48:31;22.50;39.65
75799;DHT22;70933;44.692;37.776;2023-12-20T02:49:33;22.49;39.65
75799;DHT22;70933;44.692;37.776;2023-12-20T02:50:35;22.50;39.67
75799;DHT22;70933;44.692;37.776;2023-12-20T02:51:37;22.49;39.65
75799;DHT22;70933;44.692;37.776;2023-12-20T02:52:44;22.50;39.64
75799;DHT22;70933;44.692;37.776;2023-12-20T02:53:46;22.49;39.64
75799;DHT22;70933;44.692;37.776;2023-12-20T02:54:48;22.51;39.64
75799;DHT22;70933;44.692;37.776;2023-12-20T02:55:50;22.49;39.65
75799;DHT22;70933;44.692;37.776;2023-12-20T02:56:52;22.50;39.66
75799;DHT22;70933;44.692;37.776;2023-12-20T02:57:53;22.50;39.65
75799;DHT22;70933;44.692;37.776;2023-12-20T02:58:55;22.50;39.62
75799;DHT22;70933;44.692;37.776;2023-12-20T02:59:57;22.51;39.62
75799;DHT22;70933;44.692;37.776;2023-12-20T03:00:59;22.51;39.63
75799;DHT22;70933;44.692;37.776;2023-12-20T03:02:01;22.50;39.64
75799;DHT22;70933;44.692;37.776;2023-12-20T03:03:03;22.50;39.63
75799;DHT22;70933;44.692;37.776;2023-12-20T03:04:05;22.51;39.62
75799;DHT22;70933;44.692;37.776;2023-12-20T03:05:07;22.52;39.59
75799;DHT22;70933;44.692;37.776;2023-12-20T03:06:09;22.51;39.59
75799;DHT22;70933;44.692;37.776;2023-12-20T03:07:10;22.52;39.58
75799;DHT22;70933;44.692;37.776;2023-12-20T03:08:13;22.51;39.59
75799;DHT22;70933;44.692;37.776;2023-12-20T03:09:15;22.51;39.59
75799;DHT22;70933;44.692;37.776;2023-12-20T03:10:19;22.52;39.57
75799;DHT22;70933;44.692;37.776;2023-12-20T03:11:20;22.51;39.61
75799;DHT22;70933;44.692;37.776;2023-12-20T03:12:22;22.53;39.61
75799;DHT22;70933;44.692;37.776;2023-12-20T03:13:24;22.51;39.57
75799;DHT22;70933;44.692;37.776;2023-12-20T03:14:26;22.53;39.55
75799;DHT22;70933;44.692;37.776;2023-12-20T03:15:28;22.52;39.59
75799;DHT22;70933;44.692;37.776;2023-12-20T03:16:29;22.51;39.56
75799;DHT22;70933;44.692;37.776;2023-12-20T03:17:32;22.52;39.56
75799;DHT22;70933;44.692;37.776;2023-12-20T03:18:34;22.52;39.59
75799;DHT22;70933;44.692;37.776;2023-12-20T03:19:36;22.53;39.59
75799;DHT22;70933;44.692;37.776;2023-12-20T03:20:38;22.53;39.58
75799;DHT22;70933;44.692;37.776;2023-12-20T03:21:40;22.53;39.59
75799;DHT22;70933;44.692;37.776;2023-12-20T03:22:41;22.53;39.59
75799;DHT22;70933;44.692;37.776;2023-12-20T03:23:43;22.53;39.59
75799;DHT22;70933;44.692;37.776;2023-12-20T03:24:45;22.54;39.57
75799;DHT22;70933;44.692;37.776;2023-12-20T03:25:47;22.53;39.62
75799;DHT22;70933;44.692;37.776;2023-12-20T03:26:49;22.52;39.61
75799;DHT22;70933;44.692;37.776;2023-12-20T03:27:51;22.53;39.62
75799;DHT22;70933;44.692;37.776;2023-12-20T03:28:53;22.52;39.62
75799;DHT22;70933;44.692;37.776;2023-12-20T03:29:55;22.53;39.64
75799;DHT22;70933;44.692;37.776;2023-12-20T03:30:57;22.53;39.62
75799;DHT22;70933;44.692;37.776;2023-12-20T03:31:59;22.52;39.62
75799;DHT22;70933;44.692;37.776;2023-12-20T03:33:01;22.53;39.62
75799;DHT22;70933;44.692;37.776;2023-12-20T03:34:02;22.54;39.63
75799;DHT22;70933;44.692;37.776;2023-12-20T03:35:05;22.52;39.62
75799;DHT22;70933;44.692;37.776;2023-12-20T03:36:07;22.53;39.63
75799;DHT22;70933;44.692;37.776;2023-12-20T03:37:09;22.54;39.63
75799;DHT22;70933;44.692;37.776;2023-12-20T03:38:10;22.54;39.62
75799;DHT22;70933;44.692;37.776;2023-12-20T03:39:12;22.54;39.62
75799;DHT22;70933;44.692;37.776;2023-12-20T03:40:14;22.53;39.63
75799;DHT22;70933;44.692;37.776;2023-12-20T03:41:16;22.54;39.65
75799;DHT22;70933;44.692;37.776;2023-12-20T03:42:18;22.55;39.65
75799;DHT22;70933;44.692;37.776;2023-12-20T03:43:20;22.54;39.64
75799;DHT22;70933;44.692;37.776;2023-12-20T03:44:21;22.55;39.62
75799;DHT22;70933;44.692;37.776;2023-12-20T03:45:23;22.54;39.63
75799;DHT22;70933;44.692;37.776;2023-12-20T03:46:25;22.54;39.65
75799;DHT22;70933;44.692;37.776;2023-12-20T03:47:27;22.55;39.63
75799;DHT22;70933;44.692;37.776;2023-12-20T03:48:29;22.54;39.64
75799;DHT22;70933;44.692;37.776;2023-12-20T03:49:31;22.56;39.62
75799;DHT22;70933;44.692;37.776;2023-12-20T03:50:33;22.55;39.63
75799;DHT22;70933;44.692;37.776;2023-12-20T03:51:35;22.56;39.62
75799;DHT22;70933;44.692;37.776;2023-12-20T03:52:37;22.55;39.61
75799;DHT22;70933;44.692;37.776;2023-12-20T03:53:39;22.55;39.59
75799;DHT22;70933;44.692;37.776;2023-12-20T03:54:42;22.56;39.59
75799;DHT22;70933;44.692;37.776;2023-12-20T03:55:44;22.56;39.62
75799;DHT22;70933;44.692;37.776;2023-12-20T03:56:45;22.56;39.62
75799;DHT22;70933;44.692;37.776;2023-12-20T03:57:47;22.56;39.62
75799;DHT22;70933;44.692;37.776;2023-12-20T03:58:49;22.56;39.61
75799;DHT22;70933;44.692;37.776;2023-12-20T03:59:51;22.56;39.59
75799;DHT22;70933;44.692;37.776;2023-12-20T04:00:53;22.55;39.60
75799;DHT22;70933;44.692;37.776;2023-12-20T04:01:55;22.55;39.63
75799;DHT22;70933;44.692;37.776;2023-12-20T04:02:56;22.55;39.62
75799;DHT22;70933;44.692;37.776;2023-12-20T04:03:58;22.54;39.62
75799;DHT22;70933;44.692;37.776;2023-12-20T04:05:00;22.56;39.62
75799;DHT22;70933;44.692;37.776;2023-12-20T04:06:02;22.54;39.62
75799;DHT22;70933;44.692;37.776;2023-12-20T04:07:04;22.56;39.59
75799;DHT22;70933;44.692;37.776;2023-12-20T04:08:06;22.55;39.61
75799;DHT22;70933;44.692;37.776;2023-12-20T04:09:08;22.55;39.61
75799;DHT22;70933;44.692;37.776;2023-12-20T04:10:13;22.56;39.62
75799;DHT22;70933;44.692;37.776;2023-12-20T04:11:15;22.55;39.62
75799;DHT22;70933;44.692;37.776;2023-12-20T04:12:17;22.55;39.59
75799;DHT22;70933;44.692;37.776;2023-12-20T04:13:19;22.55;39.59
75799;DHT22;70933;44.692;37.776;2023-12-20T04:14:21;22.56;39.59
75799;DHT22;70933;44.692;37.776;2023-12-20T04:15:22;22.55;39.59
75799;DHT22;70933;44.692;37.776;2023-12-20T04:16:24;22.56;39.59
75799;DHT22;70933;44.692;37.776;2023-12-20T04:17:26;22.56;39.58
75799;DHT22;70933;44.692;37.776;2023-12-20T04:18:28;22.56;39.56
75799;DHT22;70933;44.692;37.776;2023-12-20T04:19:30;22.56;39.57
75799;DHT22;70933;44.692;37.776;2023-12-20T04:20:31;22.56;39.59
75799;DHT22;70933;44.692;37.776;2023-12-20T04:21:33;22.55;39.56
75799;DHT22;70933;44.692;37.776;2023-12-20T04:22:35;22.56;39.56
75799;DHT22;70933;44.692;37.776;2023-12-20T04:23:37;22.56;39.57
75799;DHT22;70933;44.692;37.776;2023-12-20T04:24:39;22.56;39.55
75799;DHT22;70933;44.692;37.776;2023-12-20T04:25:44;22.57;39.58
75799;DHT22;70933;44.692;37.776;2023-12-20T04:26:46;22.56;39.58
75799;DHT22;70933;44.692;37.776;2023-12-20T04:27:48;22.57;39.55
75799;DHT22;70933;44.692;37.776;2023-12-20T04:28:50;22.56;39.56
75799;DHT22;70933;44.692;37.776;2023-12-20T04:29:52;22.57;39.54
75799;DHT22;70933;44.692;37.776;2023-12-20T04:30:53;22.56;39.52
75799;DHT22;70933;44.692;37.776;2023-12-20T04:31:55;22.56;39.56
75799;DHT22;70933;44.692;37.776;2023-12-20T04:32:57;22.57;39.54
75799;DHT22;70933;44.692;37.776;2023-12-20T04:33:59;22.57;39.53
75799;DHT22;70933;44.692;37.776;2023-12-20T04:35:00;22.57;39.54
75799;DHT22;70933;44.692;37.776;2023-12-20T04:36:03;22.57;39.52
75799;DHT22;70933;44.692;37.776;2023-12-20T04:37:06;22.56;39.52
75799;DHT22;70933;44.692;37.776;2023-12-20T04:38:08;22.56;39.53
75799;DHT22;70933;44.692;37.776;2023-12-20T04:39:11;22.57;39.52
75799;DHT22;70933;44.692;37.776;2023-12-20T04:40:12;22.57;39.52
75799;DHT22;70933;44.692;37.776;2023-12-20T04:41:14;22.58;39.50
75799;DHT22;70933;44.692;37.776;2023-12-20T04:42:17;22.57;39.52
75799;DHT22;70933;44.692;37.776;2023-12-20T04:43:19;22.58;39.49
75799;DHT22;70933;44.692;37.776;2023-12-20T04:44:21;22.57;39.50
75799;DHT22;70933;44.692;37.776;2023-12-20T04:45:23;22.56;39.53
75799;DHT22;70933;44.692;37.776;2023-12-20T04:46:26;22.58;39.54
75799;DHT22;70933;44.692;37.776;2023-12-20T04:47:29;22.57;39.58
75799;DHT22;70933;44.692;37.776;2023-12-20T04:48:31;22.56;40.01
75799;DHT22;70933;44.692;37.776;2023-12-20T04:49:32;22.56;40.29
75799;DHT22;70933;44.692;37.776;2023-12-20T04:50:34;22.56;40.42
75799;DHT22;70933;44.692;37.776;2023-12-20T04:51:36;22.57;40.58
75799;DHT22;70933;44.692;37.776;2023-12-20T04:52:39;22.57;40.62
75799;DHT22;70933;44.692;37.776;2023-12-20T04:53:41;22.56;40.78
75799;DHT22;70933;44.692;37.776;2023-12-20T04:54:43;22.56;40.88
75799;DHT22;70933;44.692;37.776;2023-12-20T04:55:44;22.56;40.94
75799;DHT22;70933;44.692;37.776;2023-12-20T04:56:46;22.56;41.00
75799;DHT22;70933;44.692;37.776;2023-12-20T04:57:48;22.55;41.06
75799;DHT22;70933;44.692;37.776;2023-12-20T04:58:50;22.54;41.10
75799;DHT22;70933;44.692;37.776;2023-12-20T04:59:52;22.55;41.23
75799;DHT22;70933;44.692;37.776;2023-12-20T05:00:54;22.56;41.20
75799;DHT22;70933;44.692;37.776;2023-12-20T05:01:56;22.56;41.16
75799;DHT22;70933;44.692;37.776;2023-12-20T05:02:58;22.55;41.23
75799;DHT22;70933;44.692;37.776;2023-12-20T05:04:00;22.54;41.16
75799;DHT22;70933;44.692;37.776;2023-12-20T05:05:02;22.54;42.13
75799;DHT22;70933;44.692;37.776;2023-12-20T05:06:05;22.54;41.85
75799;DHT22;70933;44.692;37.776;2023-12-20T05:07:07;22.55;42.26
75799;DHT22;70933;44.692;37.776;2023-12-20T05:08:09;22.57;42.48
75799;DHT22;70933;44.692;37.776;2023-12-20T05:09:11;22.58;42.52
75799;DHT22;70933;44.692;37.776;2023-12-20T05:10:13;22.60;42.81
75799;DHT22;70933;44.692;37.776;2023-12-20T05:11:15;22.60;42.96
75799;DHT22;70933;44.692;37.776;2023-12-20T05:12:17;22.61;42.84
75799;DHT22;70933;44.692;37.776;2023-12-20T05:13:19;22.62;43.09
75799;DHT22;70933;44.692;37.776;2023-12-20T05:14:21;22.62;42.93
75799;DHT22;70933;44.692;37.776;2023-12-20T05:15:23;22.63;42.84
75799;DHT22;70933;44.692;37.776;2023-12-20T05:16:25;22.63;42.76
75799;DHT22;70933;44.692;37.776;2023-12-20T05:17:26;22.64;42.68
75799;DHT22;70933;44.692;37.776;2023-12-20T05:18:28;22.64;42.79
75799;DHT22;70933;44.692;37.776;2023-12-20T05:19:30;22.64;42.77
75799;DHT22;70933;44.692;37.776;2023-12-20T05:20:32;22.67;42.74
75799;DHT22;70933;44.692;37.776;2023-12-20T05:21:35;22.67;42.75
75799;DHT22;70933;44.692;37.776;2023-12-20T05:22:42;22.64;42.86
75799;DHT22;70933;44.692;37.776;2023-12-20T05:23:50;22.64;42.42
75799;DHT22;70933;44.692;37.776;2023-12-20T05:25:01;22.65;42.31
75799;DHT22;70933;44.692;37.776;2023-12-20T05:26:06;22.66;42.61
75799;DHT22;70933;44.692;37.776;2023-12-20T05:27:08;22.64;42.32
75799;DHT22;70933;44.692;37.776;2023-12-20T05:28:10;22.66;42.53
75799;DHT22;70933;44.692;37.776;2023-12-20T05:29:12;22.65;42.48
75799;DHT22;70933;44.692;37.776;2023-12-20T05:30:13;22.65;42.38
75799;DHT22;70933;44.692;37.776;2023-12-20T05:31:15;22.65;42.46
75799;DHT22;70933;44.692;37.776;2023-12-20T05:32:17;22.65;42.26
75799;DHT22;70933;44.692;37.776;2023-12-20T05:33:19;22.66;42.16
75799;DHT22;70933;44.692;37.776;2023-12-20T05:34:21;22.65;42.29
75799;DHT22;70933;44.692;37.776;2023-12-20T05:35:22;22.65;42.23
75799;DHT22;70933;44.692;37.776;2023-12-20T05:36:26;22.66;42.25
75799;DHT22;70933;44.692;37.776;2023-12-20T05:37:28;22.67;42.17
75799;DHT22;70933;44.692;37.776;2023-12-20T05:38:30;22.67;42.27
75799;DHT22;70933;44.692;37.776;2023-12-20T05:39:32;22.68;42.23
75799;DHT22;70933;44.692;37.776;2023-12-20T05:40:33;22.69;42.24
75799;DHT22;70933;44.692;37.776;2023-12-20T05:41:35;22.69;42.11
75799;DHT22;70933;44.692;37.776;2023-12-20T05:42:37;22.70;42.18
75799;DHT22;70933;44.692;37.776;2023-12-20T05:43:39;22.72;42.12
75799;DHT22;70933;44.692;37.776;2023-12-20T05:44:41;22.70;42.03
75799;DHT22;70933;44.692;37.776;2023-12-20T05:45:43;22.71;42.08
75799;DHT22;70933;44.692;37.776;2023-12-20T05:46:45;22.72;42.09
75799;DHT22;70933;44.692;37.776;2023-12-20T05:47:47;22.71;41.98
75799;DHT22;70933;44.692;37.776;2023-12-20T05:48:49;22.71;41.84
75799;DHT22;70933;44.692;37.776;2023-12-20T05:49:51;22.70;41.77
75799;DHT22;70933;44.692;37.776;2023-12-20T05:50:52;22.70;41.74
75799;DHT22;70933;44.692;37.776;2023-12-20T05:51:54;22.71;41.62
75799;DHT22;70933;44.692;37.776;2023-12-20T05:52:56;22.70;41.59
75799;DHT22;70933;44.692;37.776;2023-12-20T05:53:58;22.69;41.55
75799;DHT22;70933;44.692;37.776;2023-12-20T05:55:00;22.69;41.48
75799;DHT22;70933;44.692;37.776;2023-12-20T05:56:09;22.69;41.36
75799;DHT22;70933;44.692;37.776;2023-12-20T05:57:11;22.71;41.35
75799;DHT22;70933;44.692;37.776;2023-12-20T05:58:13;22.69;41.26
75799;DHT22;70933;44.692;37.776;2023-12-20T05:59:15;22.69;41.23
75799;DHT22;70933;44.692;37.776;2023-12-20T06:00:17;22.69;41.21
75799;DHT22;70933;44.692;37.776;2023-12-20T06:01:19;22.70;41.10
75799;DHT22;70933;44.692;37.776;2023-12-20T06:02:21;22.69;41.13
75799;DHT22;70933;44.692;37.776;2023-12-20T06:03:23;22.69;41.21
75799;DHT22;70933;44.692;37.776;2023-12-20T06:04:25;22.69;41.25
75799;DHT22;70933;44.692;37.776;2023-12-20T06:05:26;22.70;41.23
75799;DHT22;70933;44.692;37.776;2023-12-20T06:06:28;22.71;41.20
75799;DHT22;70933;44.692;37.776;2023-12-20T06:07:30;22.70;41.20
75799;DHT22;70933;44.692;37.776;2023-12-20T06:08:32;22.71;41.23
75799;DHT22;70933;44.692;37.776;2023-12-20T06:09:34;22.71;41.23
75799;DHT22;70933;44.692;37.776;2023-12-20T06:10:36;22.71;41.24
75799;DHT22;70933;44.692;37.776;2023-12-20T06:11:37;22.71;41.20
75799;DHT22;70933;44.692;37.776;2023-12-20T06:12:39;22.69;41.07
75799;DHT22;70933;44.692;37.776;2023-12-20T06:13:41;22.70;41.12
75799;DHT22;70933;44.692;37.776;2023-12-20T06:14:43;22.70;41.10
75799;DHT22;70933;44.692;37.776;2023-12-20T06:15:45;22.71;41.11
75799;DHT22;70933;44.692;37.776;2023-12-20T06:16:47;22.69;41.03
75799;DHT22;70933;44.692;37.776;2023-12-20T06:17:49;22.67;40.99
75799;DHT22;70933;44.692;37.776;2023-12-20T06:18:50;22.68;40.95
75799;DHT22;70933;44.692;37.776;2023-12-20T06:19:52;22.69;40.81
75799;DHT22;70933;44.692;37.776;2023-12-20T06:20:55;22.67;40.99
75799;DHT22;70933;44.692;37.776;2023-12-20T06:21:56;22.68;40.81
75799;DHT22;70933;44.692;37.776;2023-12-20T06:22:58;22.67;40.87
75799;DHT22;70933;44.692;37.776;2023-12-20T06:24:00;22.67;40.84
75799;DHT22;70933;44.692;37.776;2023-12-20T06:25:02;22.67;41.20
75799;DHT22;70933;44.692;37.776;2023-12-20T06:26:04;22.68;41.01